Time;durP1;ratioP1;P1;durP2;ratioP2;P2;SDS_P1;SDS_P2;PMS_P1;PMS_P2;Temp;Humidity;BMP_temperature;BMP_pressure;BME280_temperature;BME280_humidity;BME280_pressure;Samples;Min_cycle;Max_cycle;Signal;HPM_P1;HPM_P2
2021/09/02 00:00:35;;;;;;;14.55;9.52;;;16.70;83.10;;;;;;5050705;28;20451;-85
2021/09/02 00:03:00;;;;;;;15.30;9.57;;;16.60;83.00;;;;;;5034284;28;20125;-84
2021/09/02 00:05:26;;;;;;;17.33;9.57;;;16.60;83.20;;;;;;5034672;28;20560;-84
2021/09/02 00:07:52;;;;;;;16.52;10.25;;;16.50;83.50;;;;;;5033877;28;20033;-84
2021/09/02 00:10:18;;;;;;;17.30;10.45;;;16.50;83.60;;;;;;5050879;28;20393;-84
2021/09/02 00:12:43;;;;;;;15.43;10.27;;;16.40;84.10;;;;;;5050955;28;20053;-84
2021/09/02 00:15:10;;;;;;;16.65;10.55;;;16.40;83.30;;;;;;5053205;28;20067;-84
2021/09/02 00:17:35;;;;;;;17.08;10.25;;;16.30;83.20;;;;;;5051976;28;20017;-84
2021/09/02 00:20:02;;;;;;;16.02;10.23;;;16.30;83.40;;;;;;5051867;28;20079;-84
2021/09/02 00:22:28;;;;;;;19.83;10.82;;;16.20;83.50;;;;;;5052939;28;20028;-84
2021/09/02 00:24:53;;;;;;;18.08;10.25;;;16.20;83.70;;;;;;5051733;28;20029;-84
2021/09/02 00:27:19;;;;;;;22.15;10.50;;;16.10;83.80;;;;;;5051708;28;20068;-84
2021/09/02 00:29:45;;;;;;;18.10;10.43;;;16.10;84.10;;;;;;5052875;28;20033;-84
2021/09/02 00:32:10;;;;;;;19.02;10.77;;;16.00;84.30;;;;;;5052827;28;20109;-84
2021/09/02 00:34:36;;;;;;;16.45;10.23;;;16.00;84.60;;;;;;5052755;28;20028;-84
2021/09/02 00:37:02;;;;;;;15.95;9.85;;;15.90;84.60;;;;;;5052916;28;20040;-84
2021/09/02 00:39:28;;;;;;;18.63;10.32;;;15.90;84.70;;;;;;5051762;28;20033;-84
2021/09/02 00:41:53;;;;;;;17.85;10.18;;;15.80;84.80;;;;;;5052058;28;20393;-84
2021/09/02 00:44:39;;;;;;;14.13;9.88;;;15.80;84.90;;;;;;5054022;28;20044;-84
2021/09/02 00:47:09;;;;;;;17.88;9.93;;;15.70;85.20;;;;;;5054145;28;20119;-84
2021/09/02 00:49:36;;;;;;;20.30;10.43;;;15.60;85.30;;;;;;5056422;28;20048;-84
2021/09/02 00:52:07;;;;;;;16.92;11.13;;;15.60;85.40;;;;;;5056279;28;20362;-84
2021/09/02 00:54:32;;;;;;;19.90;10.98;;;15.50;85.50;;;;;;5056095;28;20063;-84
2021/09/02 00:56:58;;;;;;;17.23;11.18;;;15.50;85.80;;;;;;5055944;28;20416;-84
2021/09/02 00:59:26;;;;;;;15.77;11.30;;;15.40;85.90;;;;;;5056243;28;20143;-84
2021/09/02 01:01:52;;;;;;;20.50;12.50;;;15.40;86.00;;;;;;5056477;28;20025;-84
2021/09/02 01:04:18;;;;;;;20.88;10.52;;;15.40;86.20;;;;;;5055145;28;20037;-84
2021/09/02 01:06:45;;;;;;;19.67;11.82;;;15.30;86.50;;;;;;5055120;28;20410;-84
2021/09/02 01:09:12;;;;;;;20.90;12.25;;;15.30;86.70;;;;;;5038192;28;20025;-84
2021/09/02 01:11:38;;;;;;;19.52;11.10;;;15.30;86.90;;;;;;5038336;28;20033;-84
2021/09/02 01:14:03;;;;;;;18.05;11.07;;;15.20;87.00;;;;;;5056004;28;20032;-84
2021/09/02 01:16:29;;;;;;;21.00;12.05;;;15.20;87.20;;;;;;5054990;28;20033;-84
2021/09/02 01:18:54;;;;;;;20.60;11.80;;;15.20;87.30;;;;;;5055650;28;20049;-83
2021/09/02 01:21:20;;;;;;;15.63;11.30;;;15.10;87.80;;;;;;5054681;28;20025;-84
2021/09/02 01:23:46;;;;;;;23.63;12.65;;;15.10;87.10;;;;;;5037772;28;20490;-83
2021/09/02 01:26:19;;;;;;;21.55;12.35;;;15.10;87.20;;;;;;5037579;28;20033;-84
2021/09/02 01:28:46;;;;;;;17.02;11.68;;;15.00;87.30;;;;;;5050954;28;20538;-83
2021/09/02 01:31:18;;;;;;;17.50;12.18;;;15.00;87.40;;;;;;5051575;28;20041;-84
2021/09/02 01:33:50;;;;;;;19.15;12.25;;;15.00;87.50;;;;;;5051467;28;20075;-84
2021/09/02 01:36:17;;;;;;;16.83;11.18;;;14.90;87.60;;;;;;5038214;28;20112;-83
2021/09/02 01:38:43;;;;;;;19.58;11.65;;;14.80;87.60;;;;;;5053904;28;20044;-84
2021/09/02 01:41:09;;;;;;;18.30;11.68;;;14.80;88.30;;;;;;5054867;28;20099;-84
2021/09/02 01:43:35;;;;;;;18.08;11.77;;;14.80;87.60;;;;;;5054998;28;20238;-84
2021/09/02 01:46:01;;;;;;;21.17;11.77;;;14.80;87.60;;;;;;5054896;28;20040;-84
2021/09/02 01:48:31;;;;;;;20.40;12.40;;;14.70;87.70;;;;;;5053854;28;20029;-84
2021/09/02 01:50:57;;;;;;;14.68;10.57;;;14.70;87.80;;;;;;5054613;28;20037;-84
2021/09/02 01:53:23;;;;;;;17.95;11.60;;;14.70;87.90;;;;;;5037153;28;20036;-84
2021/09/02 01:55:48;;;;;;;19.00;11.00;;;14.60;87.90;;;;;;5055250;28;20499;-83
2021/09/02 01:58:15;;;;;;;15.18;11.63;;;14.60;88.00;;;;;;5054274;28;20112;-84
2021/09/02 02:00:41;;;;;;;16.60;11.30;;;14.60;88.00;;;;;;5055213;28;20085;-84
2021/09/02 02:03:07;;;;;;;19.27;11.65;;;14.60;88.10;;;;;;5054461;28;20060;-84
2021/09/02 02:05:33;;;;;;;21.33;10.93;;;14.50;88.00;;;;;;5053280;28;20520;-84
2021/09/02 02:07:59;;;;;;;17.30;11.35;;;14.50;88.10;;;;;;5053297;28;20033;-83
2021/09/02 02:10:28;;;;;;;16.88;11.45;;;14.50;88.20;;;;;;5054354;28;20029;-83
2021/09/02 02:13:00;;;;;;;;;;;14.40;88.30;;;;;;5054996;28;20104;-84
2021/09/02 02:15:27;;;;;;;16.20;10.98;;;14.40;88.20;;;;;;5054493;28;19913;-84
2021/09/02 02:17:54;;;;;;;18.42;12.02;;;14.40;88.50;;;;;;5036365;28;20028;-84
2021/09/02 02:20:20;;;;;;;15.68;10.40;;;14.30;88.40;;;;;;5054383;28;20350;-83
2021/09/02 02:22:46;;;;;;;16.75;11.15;;;14.30;88.40;;;;;;5053152;28;20067;-84
2021/09/02 02:25:14;;;;;;;13.88;11.07;;;14.30;88.30;;;;;;5053163;28;20079;-84
2021/09/02 02:27:40;;;;;;;21.20;11.27;;;14.30;88.30;;;;;;5052931;28;20037;-84
2021/09/02 02:30:08;;;;;;;16.65;11.25;;;14.30;88.30;;;;;;5052762;28;20032;-83
2021/09/02 02:32:34;;;;;;;16.27;11.25;;;14.30;88.30;;;;;;5052868;28;20049;-84
2021/09/02 02:35:00;;;;;;;15.50;11.43;;;14.20;88.30;;;;;;5052780;28;20087;-84
2021/09/02 02:37:26;;;;;;;16.52;10.75;;;14.20;88.30;;;;;;5036157;28;20082;-83
2021/09/02 02:39:51;;;;;;;15.88;10.18;;;14.20;88.30;;;;;;5035762;28;20033;-84
2021/09/02 02:42:17;;;;;;;17.88;10.77;;;14.20;88.20;;;;;;5035880;28;20519;-84
2021/09/02 02:44:44;;;;;;;18.55;11.18;;;14.10;88.10;;;;;;5050507;28;20068;-84
2021/09/02 02:47:10;;;;;;;18.30;11.18;;;14.10;88.20;;;;;;5050035;28;20106;-84
2021/09/02 02:49:37;;;;;;;19.83;10.93;;;14.10;88.30;;;;;;5050035;28;20508;-84
2021/09/02 02:52:03;;;;;;;16.77;11.25;;;14.00;88.40;;;;;;5051589;28;20025;-84
2021/09/02 02:54:29;;;;;;;15.93;11.13;;;14.00;88.40;;;;;;5051015;28;20776;-84
2021/09/02 02:56:54;;;;;;;19.52;11.52;;;14.00;88.50;;;;;;5052592;28;20082;-84
2021/09/02 02:59:20;;;;;;;17.35;11.20;;;14.00;88.60;;;;;;5051999;28;20071;-84
2021/09/02 03:01:46;;;;;;;20.65;10.32;;;13.90;88.70;;;;;;5052019;28;20036;-84
2021/09/02 03:04:11;;;;;;;15.77;9.85;;;13.90;88.80;;;;;;5051420;28;20159;-84
2021/09/02 03:06:37;;;;;;;17.02;10.52;;;13.90;88.60;;;;;;5053467;28;20045;-84
2021/09/02 03:09:03;;;;;;;18.27;10.90;;;13.90;88.40;;;;;;5053524;28;20044;-84
2021/09/02 03:11:30;;;;;;;16.50;10.80;;;13.90;88.20;;;;;;5051834;28;20032;-83
2021/09/02 03:13:56;;;;;;;15.18;10.80;;;13.90;88.20;;;;;;5052259;28;20060;-84
2021/09/02 03:16:22;;;;;;;17.98;10.88;;;13.80;88.30;;;;;;5051793;28;20869;-83
2021/09/02 03:18:47;;;;;;;14.77;11.20;;;13.80;88.40;;;;;;5053217;28;20017;-83
2021/09/02 03:21:13;;;;;;;20.20;10.63;;;13.80;88.50;;;;;;5051871;28;20370;-84
2021/09/02 03:23:39;;;;;;;13.88;10.23;;;13.70;88.60;;;;;;5035261;28;20063;-83
2021/09/02 03:26:05;;;;;;;15.80;10.70;;;13.70;88.60;;;;;;5051984;28;20045;-83
2021/09/02 03:28:31;;;;;;;19.23;10.80;;;13.70;88.50;;;;;;5068646;28;20029;-84
2021/09/02 03:30:56;;;;;;;13.10;9.60;;;13.70;88.40;;;;;;5051936;28;20363;-83
2021/09/02 03:33:22;;;;;;;15.77;10.27;;;13.80;88.30;;;;;;5051899;28;20047;-83
2021/09/02 03:35:48;;;;;;;15.02;10.48;;;13.70;88.20;;;;;;5051740;28;20075;-83
2021/09/02 03:38:13;;;;;;;17.15;10.90;;;13.70;88.20;;;;;;5034986;28;20021;-83
2021/09/02 03:40:39;;;;;;;14.68;10.27;;;13.70;88.30;;;;;;5051773;28;20036;-83
2021/09/02 03:43:05;;;;;;;17.98;10.20;;;13.60;88.30;;;;;;5051603;28;20029;-83
2021/09/02 03:45:30;;;;;;;14.98;10.00;;;13.70;88.70;;;;;;5051434;28;20028;-84
2021/09/02 03:47:56;;;;;;;15.13;10.95;;;13.60;88.10;;;;;;5034512;28;20146;-84
2021/09/02 03:50:22;;;;;;;14.00;10.10;;;13.60;88.00;;;;;;5050575;28;21543;-83
2021/09/02 03:52:47;;;;;;;18.33;11.82;;;13.60;88.00;;;;;;5052572;28;20366;-84
2021/09/02 03:55:13;;;;;;;20.20;13.27;;;13.60;88.10;;;;;;5051610;28;20021;-83
2021/09/02 03:57:39;;;;;;;21.67;12.55;;;13.50;88.30;;;;;;5051154;28;20036;-83
2021/09/02 04:00:08;;;;;;;19.38;12.10;;;13.50;89.20;;;;;;5051288;28;20179;-84
2021/09/02 04:02:34;;;;;;;20.38;11.95;;;13.50;88.70;;;;;;5052707;28;20033;-83
2021/09/02 04:05:00;;;;;;;17.17;11.40;;;13.50;88.70;;;;;;5051289;28;20393;-83
2021/09/02 04:07:25;;;;;;;16.65;11.60;;;13.40;88.70;;;;;;5034409;28;20029;-84
2021/09/02 04:09:51;;;;;;;19.77;12.30;;;13.40;88.70;;;;;;5050994;28;20029;-78
2021/09/02 04:12:16;;;;;;;18.25;11.00;;;13.50;88.80;;;;;;5051112;28;20025;-78
2021/09/02 04:14:42;;;;;;;20.48;12.43;;;13.40;88.70;;;;;;5051134;28;20485;-78
2021/09/02 04:17:08;;;;;;;18.25;12.02;;;13.40;88.80;;;;;;5054444;28;20028;-77
2021/09/02 04:19:33;;;;;;;20.10;13.20;;;13.40;88.90;;;;;;5038428;28;20071;-78
2021/09/02 04:22:00;;;;;;;19.33;13.45;;;13.40;89.10;;;;;;5054857;28;20044;-78
2021/09/02 04:24:28;;;;;;;22.33;11.90;;;13.50;89.30;;;;;;5054149;28;20033;-78
2021/09/02 04:26:54;;;;;;;24.93;12.57;;;13.50;89.50;;;;;;5034691;28;20040;-78
2021/09/02 04:29:20;;;;;;;21.70;12.90;;;13.50;89.70;;;;;;5054867;28;20357;-80
2021/09/02 04:31:45;;;;;;;17.05;12.27;;;13.50;89.80;;;;;;5054124;28;20481;-80
2021/09/02 04:34:11;;;;;;;20.73;11.85;;;13.50;89.90;;;;;;5054102;28;20082;-80
2021/09/02 04:36:37;;;;;;;16.77;11.85;;;13.50;89.90;;;;;;5056014;28;20492;-80
2021/09/02 04:39:04;;;;;;;18.42;11.95;;;13.50;89.90;;;;;;5056066;28;20029;-80
2021/09/02 04:41:30;;;;;;;14.80;11.43;;;13.50;89.90;;;;;;5073889;28;20017;-80
2021/09/02 04:43:55;;;;;;;16.10;11.90;;;13.50;90.00;;;;;;5030984;28;20258;-80
2021/09/02 04:46:21;;;;;;;18.30;10.82;;;13.50;90.00;;;;;;5053978;28;20119;-80
2021/09/02 04:48:47;;;;;;;21.27;11.55;;;13.50;90.00;;;;;;5037820;28;20040;-80
2021/09/02 04:51:13;;;;;;;15.32;11.05;;;13.50;90.00;;;;;;5038656;28;20029;-80
2021/09/02 04:53:39;;;;;;;20.42;10.60;;;13.50;90.10;;;;;;5055143;28;20025;-80
2021/09/02 04:56:04;;;;;;;20.63;10.75;;;13.50;90.40;;;;;;5038191;28;20121;-80
2021/09/02 04:58:30;;;;;;;19.38;10.52;;;13.40;90.10;;;;;;5056332;28;20092;-80
2021/09/02 05:00:56;;;;;;;17.00;11.18;;;13.40;90.40;;;;;;5055660;28;20543;-80
2021/09/02 05:03:22;;;;;;;18.48;11.45;;;13.40;90.20;;;;;;5038092;28;20039;-81
2021/09/02 05:05:47;;;;;;;18.02;11.48;;;13.40;90.30;;;;;;5036834;28;20032;-80
2021/09/02 05:08:13;;;;;;;16.60;11.00;;;13.30;90.30;;;;;;5054625;28;20116;-81
2021/09/02 05:10:39;;;;;;;16.80;11.20;;;13.30;90.40;;;;;;5062023;28;20485;-80
2021/09/02 05:13:04;;;;;;;20.08;11.55;;;13.30;90.40;;;;;;5038333;28;20124;-80
2021/09/02 05:15:30;;;;;;;24.95;11.57;;;13.30;90.40;;;;;;5056059;28;20032;-80
2021/09/02 05:17:56;;;;;;;21.83;11.35;;;13.30;90.40;;;;;;5056118;28;20104;-80
2021/09/02 05:20:21;;;;;;;20.70;11.98;;;13.30;90.30;;;;;;5054751;28;20037;-80
2021/09/02 05:22:47;;;;;;;16.73;10.98;;;13.30;90.30;;;;;;5038204;28;20120;-80
2021/09/02 05:25:13;;;;;;;17.15;11.00;;;13.30;90.30;;;;;;5055718;28;20021;-80
2021/09/02 05:27:40;;;;;;;21.40;11.75;;;13.30;90.30;;;;;;5054982;28;20502;-80
2021/09/02 05:30:09;;;;;;;26.17;12.52;;;13.30;90.30;;;;;;5037356;28;20033;-80
2021/09/02 05:32:35;;;;;;;18.55;11.52;;;13.30;90.20;;;;;;5053584;28;20033;-80
2021/09/02 05:35:01;;;;;;;19.05;11.95;;;13.40;90.20;;;;;;5053245;28;20462;-80
2021/09/02 05:37:27;;;;;;;16.13;10.90;;;13.40;90.20;;;;;;5037589;28;20033;-80
2021/09/02 05:39:52;;;;;;;17.25;10.93;;;13.50;90.30;;;;;;5055525;28;20660;-80
2021/09/02 05:42:18;;;;;;;18.45;11.48;;;13.50;90.30;;;;;;5055281;28;20072;-80
2021/09/02 05:44:43;;;;;;;25.38;13.48;;;13.50;90.40;;;;;;5054150;28;20048;-80
2021/09/02 05:47:09;;;;;;;25.55;14.82;;;13.50;90.40;;;;;;5054329;28;20068;-80
2021/09/02 05:49:35;;;;;;;22.52;13.30;;;13.50;90.50;;;;;;5054165;28;20083;-80
2021/09/02 05:52:00;;;;;;;26.88;12.80;;;13.60;90.50;;;;;;5054349;28;20533;-80
2021/09/02 05:54:26;;;;;;;20.88;13.38;;;13.60;90.60;;;;;;5054087;28;20040;-81
2021/09/02 05:56:52;;;;;;;22.65;12.45;;;13.60;90.50;;;;;;5054223;28;20048;-81
2021/09/02 05:59:17;;;;;;;22.88;13.15;;;13.70;90.50;;;;;;5041609;28;20033;-81
2021/09/02 06:01:44;;;;;;;23.40;12.80;;;13.70;90.50;;;;;;5073952;28;20052;-81
2021/09/02 06:04:09;;;;;;;28.35;14.57;;;13.80;90.40;;;;;;5074243;28;20388;-80
2021/09/02 06:06:35;;;;;;;25.15;15.15;;;13.90;90.50;;;;;;5056852;28;20044;-80
2021/09/02 06:09:01;;;;;;;21.35;13.23;;;13.90;90.50;;;;;;5055030;28;20025;-80
2021/09/02 06:11:26;;;;;;;21.17;13.32;;;14.00;90.50;;;;;;5053704;28;20028;-80
2021/09/02 06:13:52;;;;;;;23.67;13.15;;;14.00;90.50;;;;;;5053991;28;20028;-80
2021/09/02 06:16:18;;;;;;;29.65;13.48;;;14.10;90.50;;;;;;5055134;28;20025;-80
2021/09/02 06:18:43;;;;;;;24.73;13.63;;;14.10;90.50;;;;;;5054772;28;20112;-80
2021/09/02 06:21:09;;;;;;;43.40;15.95;;;14.10;90.40;;;;;;5036873;28;20119;-80
2021/09/02 06:23:35;;;;;;;36.05;15.02;;;14.20;90.40;;;;;;5037000;28;20041;-80
2021/09/02 06:26:00;;;;;;;38.67;14.93;;;14.30;90.40;;;;;;5054840;28;20025;-80
2021/09/02 06:28:26;;;;;;;42.47;16.25;;;14.30;90.30;;;;;;5036943;28;20059;-82
2021/09/02 06:30:52;;;;;;;26.65;14.45;;;14.40;90.50;;;;;;5053711;28;20033;-81
2021/09/02 06:33:17;;;;;;;31.58;16.63;;;14.40;90.10;;;;;;5054736;28;20032;-81
2021/09/02 06:35:43;;;;;;;25.33;15.18;;;14.40;90.10;;;;;;5053523;28;20500;-81
2021/09/02 06:38:09;;;;;;;22.63;13.55;;;14.50;90.20;;;;;;5054304;28;20039;-81
2021/09/02 06:40:36;;;;;;;25.55;15.25;;;14.50;90.20;;;;;;5052472;28;20670;-81
2021/09/02 06:43:02;;;;;;;25.80;14.80;;;14.60;90.10;;;;;;5054554;28;20086;-81
2021/09/02 06:45:27;;;;;;;22.33;14.13;;;14.70;90.00;;;;;;5036797;28;20021;-81
2021/09/02 06:47:54;;;;;;;26.52;14.13;;;14.80;90.00;;;;;;5053319;28;20540;-81
2021/09/02 06:50:19;;;;;;;24.58;14.60;;;14.80;89.70;;;;;;5053005;28;20112;-81
2021/09/02 06:52:46;;;;;;;25.73;14.75;;;14.90;89.60;;;;;;5053322;28;20053;-81
2021/09/02 06:55:12;;;;;;;30.80;14.77;;;15.00;89.30;;;;;;5053083;28;20449;-81
2021/09/02 06:57:38;;;;;;;23.30;14.60;;;15.00;89.20;;;;;;5053250;28;20029;-81
2021/09/02 07:00:06;;;;;;;22.73;13.50;;;15.10;89.00;;;;;;5052445;28;20045;-81
2021/09/02 07:02:31;;;;;;;17.83;11.23;;;15.20;88.80;;;;;;5052941;28;20044;-81
2021/09/02 07:04:57;;;;;;;22.88;13.45;;;15.30;88.60;;;;;;5054157;28;20025;-81
2021/09/02 07:07:23;;;;;;;26.70;14.10;;;15.40;88.10;;;;;;5054214;28;20386;-81
2021/09/02 07:09:49;;;;;;;21.48;13.50;;;15.60;87.90;;;;;;5052873;28;20048;-81
2021/09/02 07:12:14;;;;;;;23.35;13.55;;;15.60;87.40;;;;;;5053028;28;20078;-81
2021/09/02 07:14:40;;;;;;;26.85;13.60;;;15.80;87.20;;;;;;5052546;28;20036;-81
2021/09/02 07:17:05;;;;;;;19.90;12.18;;;15.80;86.80;;;;;;5053973;28;20486;-81
2021/09/02 07:19:31;;;;;;;24.40;12.63;;;16.00;86.40;;;;;;5052773;28;20123;-80
2021/09/02 07:21:57;;;;;;;24.48;12.88;;;16.10;86.20;;;;;;5053812;28;20033;-80
2021/09/02 07:24:23;;;;;;;20.75;13.38;;;16.20;86.00;;;;;;5052343;28;20029;-81
2021/09/02 07:26:49;;;;;;;26.60;12.98;;;16.30;85.80;;;;;;5053586;28;20029;-81
2021/09/02 07:29:15;;;;;;;30.83;13.57;;;16.50;85.80;;;;;;5052193;28;20048;-81
2021/09/02 07:31:41;;;;;;;22.08;12.77;;;16.60;85.40;;;;;;5035509;28;20151;-81
2021/09/02 07:34:06;;;;;;;19.50;11.50;;;16.80;85.10;;;;;;5052428;28;20079;-81
2021/09/02 07:36:32;;;;;;;23.88;13.02;;;17.00;84.80;;;;;;5055708;28;20020;-82
2021/09/02 07:38:58;;;;;;;30.33;12.98;;;17.10;84.30;;;;;;5061290;28;20035;-81
2021/09/02 07:41:24;;;;;;;25.40;12.55;;;17.20;83.80;;;;;;5058358;28;20044;-81
2021/09/02 07:43:50;;;;;;;21.75;11.75;;;17.30;83.60;;;;;;5061080;28;20024;-82
2021/09/02 07:46:16;;;;;;;24.50;13.15;;;17.30;83.50;;;;;;5058603;28;20025;-81
2021/09/02 07:48:45;;;;;;;26.85;12.98;;;17.40;83.20;;;;;;5044841;28;20024;-82
2021/09/02 07:51:11;;;;;;;26.80;12.75;;;17.50;82.60;;;;;;5065308;28;20029;-81
2021/09/02 07:53:37;;;;;;;23.48;13.10;;;17.50;82.60;;;;;;5060932;28;20032;-81
2021/09/02 07:56:03;;;;;;;29.63;12.68;;;17.50;82.60;;;;;;5044419;28;20036;-81
2021/09/02 07:58:28;;;;;;;26.83;12.88;;;17.60;82.80;;;;;;5055745;28;20029;-82
2021/09/02 08:00:56;;;;;;;24.45;12.27;;;17.60;82.50;;;;;;5044215;28;20425;-82
2021/09/02 08:03:22;;;;;;;27.73;12.05;;;17.60;82.80;;;;;;5065151;28;20032;-82
2021/09/02 08:05:48;;;;;;;26.60;12.30;;;17.60;83.30;;;;;;5065189;28;20075;-81
2021/09/02 08:08:16;;;;;;;24.55;12.48;;;17.70;83.40;;;;;;5061618;28;20025;-82
2021/09/02 08:10:46;;;;;;;23.90;13.20;;;17.90;82.90;;;;;;5045307;28;20021;-82
2021/09/02 08:13:12;;;;;;;23.17;12.38;;;18.00;82.60;;;;;;5063561;28;20021;-82
2021/09/02 08:15:39;;;;;;;21.13;11.13;;;17.90;82.50;;;;;;5066367;28;20028;-82
2021/09/02 08:18:05;;;;;;;23.73;11.75;;;17.90;83.00;;;;;;5054978;28;20028;-80
2021/09/02 08:20:31;;;;;;;20.98;11.30;;;17.80;83.20;;;;;;5055177;28;20123;-80
2021/09/02 08:22:58;;;;;;;21.75;11.30;;;17.80;83.10;;;;;;5071871;28;20028;-80
2021/09/02 08:25:24;;;;;;;24.55;11.32;;;17.90;83.10;;;;;;5049781;28;20437;-80
2021/09/02 08:27:49;;;;;;;22.70;11.48;;;18.00;82.90;;;;;;5051718;28;20064;-80
2021/09/02 08:30:18;;;;;;;22.13;10.02;;;18.10;82.70;;;;;;5051547;28;20037;-81
2021/09/02 08:32:48;;;;;;;20.33;11.05;;;18.20;81.80;;;;;;5051647;28;20021;-80
2021/09/02 08:35:22;;;;;;;20.15;10.25;;;18.30;81.80;;;;;;5051785;28;20029;-80
2021/09/02 08:37:49;;;;;;;22.02;10.45;;;18.40;81.40;;;;;;5051596;28;20032;-80
2021/09/02 08:40:21;;;;;;;21.98;9.75;;;18.40;81.00;;;;;;5034874;28;20532;-81
2021/09/02 08:42:48;;;;;;;24.27;10.93;;;18.50;80.80;;;;;;5068339;28;20036;-81
2021/09/02 08:45:14;;;;;;;20.42;9.60;;;18.50;80.80;;;;;;5051234;28;20029;-80
2021/09/02 08:47:45;;;;;;;21.83;9.90;;;18.60;80.20;;;;;;5085148;28;20025;-80
2021/09/02 08:50:13;;;;;;;22.67;10.10;;;18.70;80.20;;;;;;5084757;28;20033;-81
2021/09/02 08:52:39;;;;;;;23.65;10.93;;;18.80;79.80;;;;;;5052319;28;20028;-80
2021/09/02 08:55:05;;;;;;;21.02;10.32;;;18.90;79.20;;;;;;5051163;28;20033;-80
2021/09/02 08:57:31;;;;;;;24.17;10.85;;;19.00;79.00;;;;;;5051120;28;20394;-80
2021/09/02 08:59:58;;;;;;;22.27;10.68;;;19.20;78.70;;;;;;5033780;28;20041;-80
2021/09/02 09:02:28;;;;;;;17.83;9.32;;;19.50;78.00;;;;;;5052103;28;20036;-79
2021/09/02 09:05:02;;;;;;;18.38;9.02;;;19.60;77.30;;;;;;5053374;28;20485;-79
2021/09/02 09:07:31;;;;;;;19.50;9.43;;;19.80;76.90;;;;;;5052837;28;20174;-78
2021/09/02 09:09:56;;;;;;;15.82;8.07;;;20.00;76.30;;;;;;5053703;28;20029;-80
2021/09/02 09:12:36;;;;;;;16.30;8.95;;;20.10;75.50;;;;;;5053364;28;20478;-80
2021/09/02 09:15:03;;;;;;;21.67;9.00;;;20.30;74.30;;;;;;5054361;28;20029;-79
2021/09/02 09:17:29;;;;;;;22.23;8.25;;;20.40;74.00;;;;;;5054649;28;20410;-83
2021/09/02 09:19:57;;;;;;;21.05;8.82;;;20.50;73.30;;;;;;5053008;28;20025;-80
2021/09/02 09:22:25;;;;;;;23.23;8.77;;;20.60;72.70;;;;;;5054357;28;20219;-83
2021/09/02 09:25:01;;;;;;;20.63;9.43;;;20.60;71.70;;;;;;5038416;28;20496;-82
2021/09/02 09:27:40;;;;;;;19.10;9.27;;;20.50;71.60;;;;;;5054680;28;20037;-85
2021/09/02 09:30:29;;;;;;;18.75;9.68;;;20.50;71.90;;;;;;5070715;28;20044;-84
2021/09/02 09:32:57;;;;;;;17.92;9.27;;;20.50;71.40;;;;;;5070564;28;20052;-84
2021/09/02 09:35:28;;;;;;;20.65;9.52;;;20.60;71.20;;;;;;5087965;28;20028;-85
2021/09/02 09:38:15;;;;;;;20.52;9.70;;;20.60;70.90;;;;;;5086265;28;20052;-85
2021/09/02 09:40:43;;;;;;;25.92;10.38;;;20.60;70.30;;;;;;5053011;28;20024;-84
2021/09/02 09:43:12;;;;;;;18.87;9.77;;;20.50;71.00;;;;;;5053942;28;20025;-81
2021/09/02 09:45:49;;;;;;;20.58;10.10;;;20.30;71.10;;;;;;5055536;28;20271;-81
2021/09/02 09:48:38;;;;;;;16.63;9.18;;;20.10;71.90;;;;;;5035642;28;20033;-82
2021/09/02 09:51:07;;;;;;;21.63;10.65;;;19.90;72.80;;;;;;5051016;28;20026;-82
2021/09/02 09:53:33;;;;;;;21.77;9.95;;;19.80;73.30;;;;;;5050846;28;20022;-82
2021/09/02 09:55:59;;;;;;;18.83;9.25;;;19.90;73.70;;;;;;5052895;28;20036;-82
2021/09/02 09:58:26;;;;;;;19.48;9.57;;;20.10;73.60;;;;;;5070798;28;20112;-83
2021/09/02 10:01:01;;;;;;;15.45;9.00;;;20.40;73.10;;;;;;5054127;28;20187;-83
2021/09/02 10:03:29;;;;;;;17.65;9.88;;;20.60;72.20;;;;;;5055317;28;20402;-85
2021/09/02 10:05:59;;;;;;;22.03;11.20;;;20.80;71.10;;;;;;5054069;28;20500;-85
2021/09/02 10:08:27;;;;;;;18.88;9.02;;;21.00;70.20;;;;;;5037707;28;20268;-84
2021/09/02 10:10:53;;;;;;;16.67;9.13;;;20.90;70.70;;;;;;5054435;28;20021;-84
2021/09/02 10:13:19;;;;;;;16.95;9.75;;;20.80;70.70;;;;;;5036751;28;20032;-87
2021/09/02 10:15:46;;;;;;;15.13;10.05;;;20.80;71.00;;;;;;5036618;28;20362;-87
2021/09/02 10:18:13;;;;;;;16.92;10.13;;;20.90;71.10;;;;;;5055016;28;20023;-82
2021/09/02 10:20:41;;;;;;;20.40;10.20;;;20.90;70.10;;;;;;5053648;28;20033;-86
2021/09/02 10:23:07;;;;;;;19.00;9.77;;;21.00;69.60;;;;;;5053762;28;20033;-87
2021/09/02 10:25:33;;;;;;;18.20;10.38;;;21.00;69.00;;;;;;5053089;28;20040;-84
2021/09/02 10:28:21;;;;;;;18.35;9.88;;;21.00;69.70;;;;;;5052620;28;20032;-84
2021/09/02 10:30:54;;;;;;;25.50;11.77;;;21.20;70.30;;;;;;5054018;28;20044;-86
2021/09/02 10:33:29;;;;;;;15.45;9.82;;;21.40;69.60;;;;;;5053274;28;20064;-85
2021/09/02 10:35:55;;;;;;;19.73;10.35;;;21.60;68.40;;;;;;5053174;28;20452;-86
2021/09/02 10:38:36;;;;;;;14.50;8.93;;;21.50;68.30;;;;;;5035217;28;20128;-87
2021/09/02 10:41:02;;;;;;;18.20;9.63;;;21.30;68.50;;;;;;5053281;28;20032;-87
2021/09/02 10:43:50;;;;;;;20.23;9.52;;;21.30;68.80;;;;;;5053030;28;20033;-87
2021/09/02 10:46:31;;;;;;;15.00;9.63;;;21.30;68.20;;;;;;5034658;28;20029;-86
2021/09/02 10:49:17;;;;;;;16.08;9.45;;;21.50;66.80;;;;;;5033427;28;20033;-84
2021/09/02 10:51:48;;;;;;;16.10;9.05;;;21.60;67.30;;;;;;5032920;28;20461;-86
2021/09/02 10:54:15;;;;;;;13.68;8.90;;;21.70;66.20;;;;;;5049930;28;20120;-85
2021/09/02 10:57:01;;;;;;;15.82;10.00;;;21.80;66.70;;;;;;5033196;28;20060;-86
2021/09/02 10:59:49;;;;;;;16.60;9.80;;;22.00;65.30;;;;;;5033234;28;20394;-87
2021/09/02 11:02:17;;;;;;;17.83;9.82;;;21.90;65.60;;;;;;5047050;28;20033;-87
2021/09/02 11:04:56;;;;;;;18.20;9.98;;;22.00;66.30;;;;;;5052699;28;20036;-87
2021/09/02 11:07:44;;;;;;;16.35;9.43;;;22.10;65.60;;;;;;5054148;28;20035;-86
2021/09/02 11:10:20;;;;;;;;;;;22.10;65.40;;;;;;5086534;28;20118;-87
2021/09/02 11:12:48;;;;;;;18.10;10.15;;;21.90;65.10;;;;;;5054162;28;20258;-87
2021/09/02 11:15:25;;;;;;;22.70;10.13;;;21.80;66.00;;;;;;5052973;28;20052;-87
2021/09/02 11:18:03;;;;;;;21.15;10.27;;;21.60;67.10;;;;;;5052833;28;20271;-87
2021/09/02 11:20:31;;;;;;;15.17;9.60;;;21.50;67.20;;;;;;5052419;28;20037;-86
2021/09/02 11:23:29;;;;;;;17.25;10.65;;;21.40;67.80;;;;;;5068938;28;20021;-86
2021/09/02 11:25:55;;;;;;;;;;;21.50;67.40;;;;;;5044768;28;20571;-82
2021/09/02 11:28:22;;;;;;;20.83;10.00;;;21.70;67.60;;;;;;5053323;28;19909;-81
2021/09/02 11:30:52;;;;;;;16.65;10.25;;;21.90;66.80;;;;;;5053434;28;20028;-83
2021/09/02 11:33:18;;;;;;;15.75;9.45;;;22.20;66.10;;;;;;5052407;28;20099;-82
2021/09/02 11:35:55;;;;;;;20.75;9.80;;;22.30;65.80;;;;;;5053507;28;20025;-84
2021/09/02 11:38:21;;;;;;;15.18;8.27;;;22.50;65.50;;;;;;5043454;28;20039;-83
2021/09/02 11:40:46;;;;;;;20.05;10.75;;;22.60;65.00;;;;;;5052233;28;20115;-84
2021/09/02 11:43:17;;;;;;;16.75;9.35;;;22.50;66.10;;;;;;5051288;28;20470;-84
2021/09/02 11:45:50;;;;;;;16.58;9.27;;;22.40;64.70;;;;;;5053119;28;20025;-83
2021/09/02 11:48:16;;;;;;;20.83;10.20;;;22.50;64.70;;;;;;5053515;28;20009;-84
2021/09/02 11:50:41;;;;;;;17.42;9.68;;;22.50;64.20;;;;;;5035526;28;20440;-84
2021/09/02 11:53:07;;;;;;;21.70;10.55;;;22.40;64.30;;;;;;5051928;28;20017;-84
2021/09/02 11:55:34;;;;;;;19.92;9.63;;;22.40;64.80;;;;;;5053392;28;20025;-84
2021/09/02 11:58:06;;;;;;;15.70;10.10;;;22.50;65.10;;;;;;5053333;28;20082;-84
2021/09/02 12:00:33;;;;;;;14.80;9.00;;;22.50;64.70;;;;;;5051609;28;20049;-84
2021/09/02 12:03:01;;;;;;;18.05;9.93;;;22.40;64.40;;;;;;5051950;28;20148;-84
2021/09/02 12:05:36;;;;;;;19.13;10.15;;;22.30;64.70;;;;;;5068803;28;20036;-83
2021/09/02 12:08:05;;;;;;;18.67;9.32;;;22.20;66.10;;;;;;5051555;28;20029;-84
2021/09/02 12:10:30;;;;;;;;;;;22.40;65.50;;;;;;5053512;28;20037;-84
2021/09/02 12:12:58;;;;;;;24.98;11.25;;;22.50;65.00;;;;;;5053289;28;19924;-84
2021/09/02 12:15:29;;;;;;;16.58;11.02;;;22.40;64.90;;;;;;5051912;28;20386;-83
2021/09/02 12:18:06;;;;;;;19.88;9.75;;;22.20;64.90;;;;;;5051027;28;20026;-84
2021/09/02 12:20:32;;;;;;;15.27;10.35;;;22.20;66.70;;;;;;5033070;28;20041;-83
2021/09/02 12:22:58;;;;;;;20.67;10.88;;;22.30;66.80;;;;;;5033138;28;20028;-84
2021/09/02 12:25:23;;;;;;;15.45;9.52;;;22.50;66.20;;;;;;5034222;28;20120;-84
2021/09/02 12:27:54;;;;;;;14.20;10.35;;;22.70;65.80;;;;;;5051991;28;20025;-84
2021/09/02 12:31:12;;;;;;;19.17;8.82;;;23.00;65.10;;;;;;5053656;28;20041;-78
2021/09/02 12:33:56;;;;;;;16.77;10.23;;;23.40;64.30;;;;;;4994414;28;20069;-78